createdAt,value
2023-02-18T00:01:42.924Z,1.93
2023-02-18T00:04:11.209Z,2.23
2023-02-18T00:06:39.798Z,1.30
2023-02-18T00:09:09.410Z,1.13
2023-02-18T00:11:39.302Z,1.97
2023-02-18T00:14:09.762Z,2.03
2023-02-18T00:16:38.579Z,1.63
2023-02-18T00:19:11.155Z,2.67
2023-02-18T00:21:39.696Z,1.77
2023-02-18T00:24:08.636Z,2.30
2023-02-18T00:26:37.558Z,2.00
2023-02-18T00:29:06.216Z,1.17
2023-02-18T00:31:36.565Z,1.47
2023-02-18T00:34:07.260Z,1.30
2023-02-18T00:36:36.196Z,1.80
2023-02-18T00:39:07.412Z,2.80
2023-02-18T00:41:36.316Z,2.43
2023-02-18T00:44:05.337Z,2.10
2023-02-18T00:46:34.528Z,1.57
2023-02-18T00:49:03.869Z,3.53
2023-02-18T00:51:34.092Z,2.77
2023-02-18T00:54:02.967Z,2.13
2023-02-18T00:56:31.310Z,2.03
2023-02-18T00:58:59.887Z,2.47
2023-02-18T01:01:28.379Z,2.10
2023-02-18T01:03:56.857Z,1.63
2023-02-18T01:06:25.180Z,2.50
2023-02-18T01:08:55.172Z,2.17
2023-02-18T01:11:23.736Z,2.10
2023-02-18T01:13:52.494Z,2.10
2023-02-18T01:16:20.886Z,1.70
2023-02-18T01:18:49.433Z,1.40
2023-02-18T01:21:17.898Z,1.93
2023-02-18T01:23:46.421Z,2.43
2023-02-18T01:26:16.012Z,1.87
2023-02-18T01:28:44.545Z,1.57
2023-02-18T01:31:14.902Z,1.23
2023-02-18T01:33:44.229Z,1.63
2023-02-18T01:36:13.127Z,1.67
2023-02-18T01:38:42.363Z,1.53
2023-02-18T01:41:11.394Z,2.23
2023-02-18T01:43:41.961Z,1.63
2023-02-18T01:46:19.962Z,1.77
2023-02-18T01:48:52.832Z,1.43
2023-02-18T01:51:24.887Z,2.20
2023-02-18T01:53:58.489Z,1.80
2023-02-18T01:56:35.355Z,1.47
2023-02-18T01:59:09.347Z,2.10
2023-02-18T02:01:38.102Z,1.87
2023-02-18T02:04:06.864Z,2.10
2023-02-18T02:06:35.128Z,2.00
2023-02-18T02:09:06.176Z,2.20
2023-02-18T02:12:00.635Z,1.83
2023-02-18T02:15:01.280Z,2.03
2023-02-18T02:17:36.731Z,1.40
2023-02-18T02:20:43.837Z,1.57
2023-02-18T02:23:52.746Z,2.13
2023-02-18T02:27:00.166Z,1.83
2023-02-18T02:30:16.534Z,1.70
2023-02-18T02:33:25.331Z,1.40
2023-02-18T02:36:01.717Z,2.47
2023-02-18T02:38:35.681Z,1.40
2023-02-18T02:41:17.945Z,1.43
2023-02-18T02:43:58.029Z,1.90
2023-02-18T02:46:31.568Z,1.80
2023-02-18T02:49:09.604Z,1.70
2023-02-18T02:51:44.089Z,2.03
2023-02-18T02:54:16.296Z,2.50
2023-02-18T02:56:44.609Z,1.67
2023-02-18T02:59:17.393Z,1.97
2023-02-18T03:02:02.772Z,2.07
2023-02-18T03:04:52.444Z,1.30
2023-02-18T03:07:46.492Z,1.10
2023-02-18T03:10:29.616Z,2.10
2023-02-18T03:13:06.074Z,1.57
2023-02-18T03:15:40.858Z,1.60
2023-02-18T03:18:14.730Z,1.83
2023-02-18T03:20:49.480Z,2.20
2023-02-18T03:23:24.856Z,1.70
2023-02-18T03:25:55.320Z,1.83
2023-02-18T03:28:27.480Z,2.30
2023-02-18T03:31:00.927Z,2.03
2023-02-18T03:33:34.824Z,2.37
2023-02-18T03:36:04.320Z,1.17
2023-02-18T03:38:39.124Z,1.40
2023-02-18T03:41:08.226Z,1.83
2023-02-18T03:43:36.443Z,1.60
2023-02-18T03:46:05.505Z,2.07
2023-02-18T03:48:33.866Z,1.97
2023-02-18T03:51:02.281Z,1.40
2023-02-18T03:53:30.528Z,1.40
2023-02-18T03:56:00.327Z,2.57
2023-02-18T03:58:28.473Z,1.53
2023-02-18T04:00:56.959Z,1.63
2023-02-18T04:03:25.215Z,1.33
2023-02-18T04:05:53.671Z,2.33
2023-02-18T04:08:21.847Z,1.67
2023-02-18T04:10:50.389Z,1.43
2023-02-18T04:13:20.302Z,1.20
2023-02-18T04:15:51.562Z,2.37
2023-02-18T04:18:20.638Z,1.37
2023-02-18T04:20:49.326Z,1.40
2023-02-18T04:23:17.722Z,1.70
2023-02-18T04:25:46.251Z,1.60
2023-02-18T04:28:16.568Z,1.75
2023-02-18T04:30:47.501Z,2.47
2023-02-18T04:33:16.453Z,1.37
2023-02-18T04:35:45.074Z,1.53
2023-02-18T04:38:15.844Z,1.87
2023-02-18T04:40:44.345Z,2.13
2023-02-18T04:43:12.552Z,2.17
2023-02-18T04:45:41.143Z,2.53
2023-02-18T04:48:10.807Z,1.93
2023-02-18T04:50:39.318Z,1.67
2023-02-18T04:53:07.569Z,1.60
2023-02-18T04:55:36.058Z,2.17
2023-02-18T04:58:04.505Z,1.80
2023-02-18T05:00:33.014Z,1.17
2023-02-18T05:03:01.230Z,1.40
2023-02-18T05:05:31.390Z,1.30
2023-02-18T05:07:59.558Z,1.40
2023-02-18T05:10:28.060Z,1.40
2023-02-18T05:12:56.245Z,1.37
2023-02-18T05:15:24.827Z,1.63
2023-02-18T05:17:53.302Z,2.13
2023-02-18T05:20:22.077Z,2.17
2023-02-18T05:22:51.701Z,1.50
2023-02-18T05:25:20.315Z,1.43
2023-02-18T05:27:48.663Z,1.60
2023-02-18T05:30:17.192Z,2.17
2023-02-18T05:32:45.618Z,1.03
2023-02-18T05:35:14.628Z,2.40
2023-02-18T05:37:42.919Z,1.63
2023-02-18T05:40:14.016Z,1.27
2023-02-18T05:42:42.214Z,1.63
2023-02-18T05:45:11.003Z,1.53
2023-02-18T05:47:39.386Z,1.90
2023-02-18T05:50:09.284Z,1.97
2023-02-18T05:52:37.622Z,2.63
2023-02-18T05:55:09.057Z,1.87
2023-02-18T05:57:38.661Z,1.70
2023-02-18T06:00:10.393Z,2.40
2023-02-18T06:02:39.387Z,2.07
2023-02-18T06:05:09.428Z,1.80
2023-02-18T06:07:38.293Z,1.50
2023-02-18T06:10:09.569Z,2.10
2023-02-18T06:12:39.207Z,1.47
2023-02-18T06:15:08.409Z,1.87
2023-02-18T06:17:36.763Z,1.63
2023-02-18T06:20:05.949Z,2.23
2023-02-18T06:22:34.400Z,1.30
2023-02-18T06:25:03.032Z,1.10
2023-02-18T06:27:31.418Z,1.90
2023-02-18T06:30:01.524Z,2.23
2023-02-18T06:32:29.856Z,2.50
2023-02-18T06:34:58.393Z,2.03
2023-02-18T06:37:26.743Z,1.80
2023-02-18T06:39:55.219Z,1.87
2023-02-18T06:42:23.448Z,2.13
2023-02-18T06:44:54.549Z,2.63
2023-02-18T06:47:24.146Z,1.53
2023-02-18T06:49:52.693Z,1.97
2023-02-18T06:52:20.872Z,1.40
2023-02-18T06:54:49.396Z,1.70
2023-02-18T06:57:17.680Z,1.83
2023-02-18T06:59:46.311Z,2.20
2023-02-18T07:02:14.764Z,1.53
2023-02-18T07:04:45.574Z,2.50
2023-02-18T07:07:14.228Z,1.90
2023-02-18T07:09:43.049Z,1.60
2023-02-18T07:12:11.295Z,1.70
2023-02-18T07:14:41.119Z,2.47
2023-02-18T07:17:09.426Z,2.23
2023-02-18T07:19:37.950Z,2.63
2023-02-18T07:22:07.598Z,1.60
2023-02-18T07:24:36.243Z,2.20
2023-02-18T07:27:04.758Z,1.80
2023-02-18T07:29:33.441Z,1.97
2023-02-18T07:32:01.876Z,1.73
2023-02-18T07:34:30.379Z,2.30
2023-02-18T07:36:58.583Z,1.83
2023-02-18T07:39:28.448Z,1.53
2023-02-18T07:41:56.939Z,2.10
2023-02-18T07:44:27.661Z,2.87
2023-02-18T07:46:55.949Z,2.57
2023-02-18T07:49:24.573Z,3.03
2023-02-18T07:51:52.996Z,2.40
2023-02-18T07:54:21.592Z,2.37
2023-02-18T07:56:51.656Z,2.10
2023-02-18T07:59:20.527Z,2.17
2023-02-18T08:01:48.999Z,1.80
2023-02-18T08:04:17.645Z,1.93
2023-02-18T08:06:48.469Z,1.77
2023-02-18T08:09:17.617Z,3.13
2023-02-18T08:11:46.720Z,2.47
2023-02-18T08:14:16.730Z,2.53
2023-02-18T08:16:45.066Z,2.28
2023-02-18T08:19:13.588Z,2.20
2023-02-18T08:21:42.093Z,2.33
2023-02-18T08:24:10.848Z,2.03
2023-02-18T08:26:46.139Z,2.20
2023-02-18T08:29:28.440Z,2.50
2023-02-18T08:31:58.085Z,1.83
2023-02-18T08:34:27.066Z,2.43
2023-02-18T08:36:55.492Z,2.17
2023-02-18T08:39:24.202Z,2.80
2023-02-18T08:41:52.531Z,2.70
2023-02-18T08:44:21.318Z,2.37
2023-02-18T08:46:54.368Z,3.60
2023-02-18T08:49:24.257Z,2.20
2023-02-18T08:51:52.669Z,3.35
2023-02-18T08:54:21.800Z,2.75
2023-02-18T08:56:50.094Z,2.67
2023-02-18T08:59:18.596Z,2.40
2023-02-18T09:01:46.850Z,2.58
2023-02-18T09:04:16.918Z,2.43
2023-02-18T09:06:46.860Z,3.40
2023-02-18T09:09:15.433Z,2.10
2023-02-18T09:11:44.142Z,1.65
2023-02-18T09:14:13.262Z,1.87
2023-02-18T09:16:42.198Z,1.93
2023-02-18T09:19:10.994Z,2.22
2023-02-18T09:21:40.523Z,3.00
2023-02-18T09:24:09.738Z,2.42
2023-02-18T09:26:39.556Z,2.50
2023-02-18T09:29:08.165Z,2.13
2023-02-18T09:31:38.118Z,2.25
2023-02-18T09:34:07.489Z,1.60
2023-02-18T09:36:35.857Z,2.83
2023-02-18T09:39:07.398Z,2.77
2023-02-18T09:41:42.434Z,2.13
2023-02-18T09:44:15.313Z,2.67
2023-02-18T09:46:51.163Z,2.40
2023-02-18T09:49:23.749Z,2.63
2023-02-18T09:51:53.311Z,2.97
2023-02-18T09:54:23.327Z,2.70
2023-02-18T09:56:53.083Z,2.23
2023-02-18T09:59:23.575Z,2.50
2023-02-18T10:01:54.529Z,2.67
2023-02-18T10:04:30.182Z,2.33
2023-02-18T10:06:59.472Z,2.10
2023-02-18T10:09:35.578Z,2.22
2023-02-18T10:12:12.862Z,2.88
2023-02-18T10:14:41.427Z,2.00
2023-02-18T10:17:15.044Z,2.08
2023-02-18T10:19:44.988Z,1.90
2023-02-18T10:22:15.291Z,2.63
2023-02-18T10:24:49.344Z,2.67
2023-02-18T10:27:22.021Z,1.80
2023-02-18T10:29:50.892Z,2.95
2023-02-18T10:32:24.332Z,2.22
2023-02-18T10:35:01.082Z,1.58
2023-02-18T10:37:54.329Z,2.58
2023-02-18T10:40:31.413Z,2.90
2023-02-18T10:43:10.284Z,2.42
2023-02-18T10:45:47.471Z,2.47
2023-02-18T10:48:45.303Z,2.47
2023-02-18T10:51:19.254Z,2.45
2023-02-18T10:53:49.396Z,1.97
2023-02-18T10:59:15.414Z,2.25
2023-02-18T11:01:45.411Z,2.67
2023-02-18T11:04:18.121Z,2.80
2023-02-18T11:06:49.065Z,2.25
2023-02-18T11:09:29.797Z,2.53
2023-02-18T11:12:09.169Z,2.53
2023-02-18T11:14:45.380Z,2.13
2023-02-18T11:17:21.657Z,2.38
2023-02-18T11:20:00.351Z,2.58
2023-02-18T11:22:33.057Z,2.97
2023-02-18T11:25:03.450Z,2.80
2023-02-18T11:27:40.020Z,2.47
2023-02-18T11:30:22.086Z,2.42
2023-02-18T11:32:53.918Z,2.58
2023-02-18T11:35:24.713Z,2.00
2023-02-18T11:37:53.939Z,1.97
2023-02-18T11:40:24.994Z,2.08
2023-02-18T11:43:03.182Z,2.65
2023-02-18T11:45:35.370Z,1.88
2023-02-18T11:48:10.330Z,1.55
2023-02-18T11:50:38.564Z,2.17
2023-02-18T11:53:28.873Z,1.88
2023-02-18T11:55:58.586Z,1.92
2023-02-18T11:58:28.300Z,2.08
2023-02-18T12:01:03.930Z,1.77
2023-02-18T12:03:39.569Z,1.40
2023-02-18T12:06:26.742Z,1.55
2023-02-18T12:08:59.214Z,2.42
2023-02-18T12:11:31.999Z,2.00
2023-02-18T12:14:00.645Z,1.33
2023-02-18T12:16:37.312Z,2.42
2023-02-18T12:19:25.763Z,2.35
2023-02-18T12:22:02.936Z,2.15
2023-02-18T12:24:49.293Z,1.88
2023-02-18T12:27:23.095Z,2.67
2023-02-18T12:30:18.693Z,1.88
2023-02-18T12:32:54.784Z,1.70
2023-02-18T12:36:01.246Z,1.80
2023-02-18T12:38:53.512Z,1.70
2023-02-18T12:41:34.421Z,1.95
2023-02-18T12:44:13.621Z,1.40
2023-02-18T12:46:54.452Z,1.95
2023-02-18T12:49:41.984Z,1.70
2023-02-18T12:52:23.780Z,1.70
2023-02-18T12:55:18.131Z,3.08
2023-02-18T12:57:54.691Z,2.53
2023-02-18T13:00:52.455Z,2.88
2023-02-18T13:03:54.636Z,3.13
2023-02-18T13:06:39.506Z,2.85
2023-02-18T13:09:20.089Z,2.17
2023-02-18T13:11:56.684Z,2.45
2023-02-18T13:14:29.132Z,1.95
2023-02-18T13:17:00.568Z,2.53
2023-02-18T13:19:33.632Z,1.88
2023-02-18T13:22:06.639Z,2.50
2023-02-18T13:24:37.297Z,2.53
2023-02-18T13:27:17.407Z,2.50
2023-02-18T13:29:52.434Z,1.65
2023-02-18T13:32:27.908Z,1.88
2023-02-18T13:35:01.317Z,1.77
2023-02-18T13:37:38.140Z,1.67
2023-02-18T13:40:18.530Z,2.17
2023-02-18T13:42:46.802Z,1.60
2023-02-18T13:45:33.891Z,1.92
2023-02-18T13:48:02.659Z,1.42
2023-02-18T13:50:42.751Z,1.58
2023-02-18T13:53:24.183Z,1.98
2023-02-18T13:56:08.626Z,2.28
2023-02-18T13:58:43.795Z,1.83
2023-02-18T14:01:48.361Z,1.77
2023-02-18T14:04:38.492Z,1.92
2023-02-18T14:07:46.479Z,1.75
2023-02-18T14:10:33.483Z,2.30
2023-02-18T14:13:24.956Z,2.05
2023-02-18T14:16:00.232Z,1.90
2023-02-18T14:18:56.805Z,1.33
2023-02-18T14:21:38.969Z,1.83
2023-02-18T14:24:10.585Z,2.17
2023-02-18T14:26:45.576Z,1.83
2023-02-18T14:29:19.234Z,1.35
2023-02-18T14:31:57.783Z,2.00
2023-02-18T14:34:52.535Z,1.60
2023-02-18T14:37:50.496Z,1.27
2023-02-18T14:40:28.777Z,1.40
2023-02-18T14:43:08.505Z,1.40
2023-02-18T14:46:06.602Z,1.30
2023-02-18T14:48:58.821Z,1.83
2023-02-18T14:51:30.463Z,1.47
2023-02-18T14:54:05.423Z,2.03
2023-02-18T14:56:38.708Z,1.80
2023-02-18T14:59:08.729Z,1.93
2023-02-18T15:01:39.075Z,1.30
2023-02-18T15:04:07.465Z,1.70
2023-02-18T15:06:37.790Z,1.67
2023-02-18T15:09:16.485Z,1.67
2023-02-18T15:11:47.546Z,1.60
2023-02-18T15:14:20.259Z,1.73
2023-02-18T15:16:51.142Z,1.43
2023-02-18T15:19:22.897Z,1.43
2023-02-18T15:21:52.861Z,2.03
2023-02-18T15:24:26.339Z,1.80
2023-02-18T15:26:58.173Z,2.13
2023-02-18T15:29:29.457Z,1.60
2023-02-18T15:31:59.517Z,1.97
2023-02-18T15:34:39.908Z,1.90
2023-02-18T15:37:14.016Z,2.20
2023-02-18T15:39:44.043Z,1.80
2023-02-18T15:42:23.703Z,2.20
2023-02-18T15:44:57.186Z,2.00
2023-02-18T15:47:26.397Z,2.70
2023-02-18T15:49:58.142Z,2.33
2023-02-18T15:52:29.691Z,1.87
2023-02-18T15:55:02.462Z,2.10
2023-02-18T15:57:32.298Z,2.10
2023-02-18T16:00:08.031Z,2.10
2023-02-18T16:02:36.619Z,2.27
2023-02-18T16:05:14.464Z,1.60
2023-02-18T16:07:53.096Z,1.70
2023-02-18T16:10:24.368Z,2.13
2023-02-18T16:12:55.943Z,1.97
2023-02-18T16:15:28.224Z,2.57
2023-02-18T16:17:59.082Z,2.50
2023-02-18T16:20:31.950Z,2.53
2023-02-18T16:23:04.032Z,2.33
2023-02-18T16:25:43.987Z,2.57
2023-02-18T16:28:16.527Z,2.20
2023-02-18T16:30:46.991Z,2.30
2023-02-18T16:33:16.551Z,2.60
2023-02-18T16:35:50.916Z,2.57
2023-02-18T16:38:22.072Z,2.70
2023-02-18T16:40:50.843Z,3.30
2023-02-18T16:43:22.034Z,2.43
2023-02-18T16:45:53.425Z,3.07
2023-02-18T16:48:27.340Z,2.57
2023-02-18T16:50:55.942Z,2.57
2023-02-18T16:53:24.675Z,2.93
2023-02-18T16:55:53.194Z,2.60
2023-02-18T16:58:21.644Z,2.87
2023-02-18T17:00:53.100Z,3.00
2023-02-18T17:03:21.844Z,3.07
2023-02-18T17:05:50.100Z,3.37
2023-02-18T17:08:23.119Z,2.83
2023-02-18T17:10:54.032Z,3.80
2023-02-18T17:13:27.744Z,3.40
2023-02-18T17:15:58.702Z,3.93
2023-02-18T17:18:27.929Z,3.73
2023-02-18T17:20:57.118Z,3.70
2023-02-18T17:23:25.942Z,3.27
2023-02-18T17:25:54.586Z,3.33
2023-02-18T17:28:23.389Z,3.30
2023-02-18T17:30:57.642Z,4.03
2023-02-18T17:33:27.554Z,3.53
2023-02-18T17:35:55.792Z,3.47
2023-02-18T17:38:24.683Z,3.80
2023-02-18T17:40:52.858Z,4.00
2023-02-18T17:43:23.761Z,4.07
2023-02-18T17:45:53.796Z,4.47
2023-02-18T17:48:22.729Z,4.30
2023-02-18T17:50:53.400Z,3.93
2023-02-18T17:53:21.880Z,5.47
2023-02-18T17:55:50.920Z,4.47
2023-02-18T17:58:19.472Z,3.93
2023-02-18T18:00:51.625Z,3.97
2023-02-18T18:03:20.404Z,4.00
2023-02-18T18:05:52.007Z,3.57
2023-02-18T18:08:22.062Z,4.60
2023-02-18T18:10:52.610Z,4.07
2023-02-18T18:13:23.681Z,3.80
2023-02-18T18:15:52.737Z,4.23
2023-02-18T18:18:21.533Z,4.30
2023-02-18T18:20:53.286Z,4.63
2023-02-18T18:23:24.313Z,4.83
2023-02-18T18:25:53.717Z,4.70
2023-02-18T18:28:22.522Z,4.50
2023-02-18T18:30:53.388Z,4.43
2023-02-18T18:33:23.899Z,4.30
2023-02-18T18:35:54.865Z,3.97
2023-02-18T18:38:25.988Z,3.77
2023-02-18T18:40:55.381Z,4.23
2023-02-18T18:43:26.620Z,4.40
2023-02-18T18:45:55.373Z,4.07
2023-02-18T18:48:25.226Z,3.87
2023-02-18T18:50:54.602Z,4.47
2023-02-18T18:53:26.763Z,3.90
2023-02-18T18:55:57.148Z,4.67
2023-02-18T18:58:25.909Z,3.60
2023-02-18T19:00:55.932Z,4.47
2023-02-18T19:03:25.627Z,3.77
2023-02-18T19:05:54.493Z,3.83
2023-02-18T19:08:24.508Z,4.20
2023-02-18T19:10:54.475Z,3.57
2023-02-18T19:13:24.998Z,3.87
2023-02-18T19:16:01.853Z,3.47
2023-02-18T19:18:33.498Z,4.27
2023-02-18T19:21:03.509Z,4.00
2023-02-18T19:23:34.896Z,3.97
2023-02-18T19:26:03.352Z,4.00
2023-02-18T19:28:32.240Z,4.07
2023-02-18T19:31:00.566Z,4.27
2023-02-18T19:33:29.348Z,3.93
2023-02-18T19:35:57.627Z,3.70
2023-02-18T19:38:26.150Z,4.00
2023-02-18T19:40:56.719Z,3.50
2023-02-18T19:43:25.296Z,3.53
2023-02-18T19:45:53.491Z,3.03
2023-02-18T19:48:23.346Z,3.07
2023-02-18T19:50:51.969Z,4.00
2023-02-18T19:53:20.440Z,3.67
2023-02-18T19:56:00.705Z,4.27
2023-02-18T19:58:30.626Z,4.77
2023-02-18T20:00:58.899Z,5.67
2023-02-18T20:03:27.452Z,8.43
2023-02-18T20:05:56.067Z,5.70
2023-02-18T20:08:24.553Z,6.33
2023-02-18T20:10:59.292Z,6.10
2023-02-18T20:13:28.207Z,5.80
2023-02-18T20:15:56.508Z,4.70
2023-02-18T20:18:25.114Z,4.50
2023-02-18T20:20:53.499Z,5.60
2023-02-18T20:23:22.073Z,4.93
2023-02-18T20:25:50.463Z,4.00
2023-02-18T20:28:20.727Z,3.93
2023-02-18T20:30:48.974Z,4.13
2023-02-18T20:33:17.426Z,4.77
2023-02-18T20:35:45.644Z,3.47
2023-02-18T20:38:14.191Z,4.47
2023-02-18T20:40:42.416Z,3.63
2023-02-18T20:43:10.863Z,4.00
2023-02-18T20:45:40.668Z,3.40
2023-02-18T20:48:09.146Z,3.57
2023-02-18T20:50:37.450Z,3.90
2023-02-18T20:53:06.014Z,3.13
2023-02-18T20:55:34.176Z,3.20
2023-02-18T20:58:02.625Z,3.33
2023-02-18T21:00:30.898Z,3.40
2023-02-18T21:03:00.888Z,2.67
2023-02-18T21:05:29.425Z,3.13
2023-02-18T21:07:58.008Z,2.67
2023-02-18T21:10:26.182Z,2.80
2023-02-18T21:12:54.854Z,2.70
2023-02-18T21:15:23.077Z,2.60
2023-02-18T21:17:51.553Z,2.50
2023-02-18T21:20:21.521Z,1.90
2023-02-18T21:22:49.993Z,2.67
2023-02-18T21:25:18.298Z,2.40
2023-02-18T21:27:46.683Z,2.00
2023-02-18T21:30:15.381Z,2.53
2023-02-18T21:32:43.874Z,1.87
2023-02-18T21:35:12.113Z,2.30
2023-02-18T21:37:41.983Z,2.87
2023-02-18T21:40:11.187Z,2.47
2023-02-18T21:42:39.679Z,3.17
2023-02-18T21:45:08.870Z,2.33
2023-02-18T21:47:37.704Z,2.80
2023-02-18T21:50:06.386Z,2.37
2023-02-18T21:52:34.829Z,2.37
2023-02-18T21:55:04.355Z,2.47
2023-02-18T21:57:33.023Z,2.57
2023-02-18T22:00:08.419Z,2.10
2023-02-18T22:02:46.949Z,2.10
2023-02-18T22:05:15.586Z,2.67
2023-02-18T22:07:44.142Z,2.50
2023-02-18T22:10:13.750Z,2.57
2023-02-18T22:12:42.282Z,2.03
2023-02-18T22:15:10.778Z,2.37
2023-02-18T22:17:39.756Z,2.70
2023-02-18T22:20:09.183Z,2.40
2023-02-18T22:22:37.624Z,2.00
2023-02-18T22:25:06.412Z,2.67
2023-02-18T22:27:36.443Z,2.40
2023-02-18T22:30:05.276Z,2.30
2023-02-18T22:32:34.606Z,2.20
2023-02-18T22:35:03.106Z,3.60
2023-02-18T22:37:31.855Z,3.73
2023-02-18T22:40:00.042Z,3.17
2023-02-18T22:42:28.497Z,3.80
2023-02-18T22:44:58.046Z,3.13
2023-02-18T22:47:26.556Z,3.90
2023-02-18T22:49:54.760Z,3.27
2023-02-18T22:52:23.395Z,3.10
2023-02-18T22:54:52.493Z,3.43
2023-02-18T22:57:21.853Z,2.43
2023-02-18T22:59:50.855Z,3.60
2023-02-18T23:02:21.270Z,3.23
2023-02-18T23:04:49.584Z,2.63
2023-02-18T23:07:18.589Z,2.63
2023-02-18T23:09:46.995Z,2.57
2023-02-18T23:12:15.540Z,2.93
2023-02-18T23:14:43.860Z,2.40
2023-02-18T23:17:17.699Z,1.93
2023-02-18T23:19:48.950Z,2.10
2023-02-18T23:22:19.359Z,2.33
2023-02-18T23:24:49.488Z,1.87
2023-02-18T23:27:18.361Z,2.53
2023-02-18T23:30:02.117Z,2.40
2023-02-18T23:32:32.002Z,2.10
2023-02-18T23:35:01.572Z,2.50
2023-02-18T23:37:44.390Z,2.03
2023-02-18T23:40:13.794Z,2.00
2023-02-18T23:42:42.414Z,2.37
2023-02-18T23:45:10.824Z,1.97
2023-02-18T23:47:39.842Z,2.23
2023-02-18T23:50:09.978Z,2.00
2023-02-18T23:52:38.653Z,2.87
2023-02-18T23:55:07.329Z,1.83
2023-02-18T23:57:35.964Z,2.30
